LIPE/BLQ METAR and TAF weather

Enter ICAO airport designator
Station Type Date Time Source
LIPE METAR 2019/08/23 17:20 UTC NOAA

LIPE 231720Z VRB01KT 9999 SCT040 24/22 Q1020


Station Type Date Time Source
LIPE Decoded METAR 2019/08/23 17:20 UTC NOAA

Station name not available
Aug 23, 2019 - 01:20 PM EDT / 2019.08.23 1720 UTC
Wind: Variable at 1 MPH (1 KT):0
Visibility: greater than 7 mile(s):0
Sky conditions: partly cloudy
Temperature: 75 F (24 C)
Dew Point: 71 F (22 C)
Relative Humidity: 88%
Pressure (altimeter): 30.12 in. Hg (1020 hPa)
ob: LIPE 231720Z VRB01KT 9999 SCT040 24/22 Q1020
cycle: 17

Station Type Date Time Source
LIPE TAF 2019/08/23 18:21 UTC NOAA

TAF LIPE 231700Z 2318/2418 VRB05KT 9999 SCT040
TEMPO 2318/2322 3000 TSRA
TEMPO 2322/2410 SHRA

Example: see airport list